sensor_id;sensor_type;location;lat;lon;timestamp;P1;durP1;ratioP1;P2;durP2;ratioP2
71290;SDS011;59073;51.994;4.448;2023-06-22T00:01:18;11.49;;;11.47;;
71290;SDS011;59073;51.994;4.448;2023-06-22T00:03:44;12.62;;;12.52;;
71290;SDS011;59073;51.994;4.448;2023-06-22T00:06:09;11.34;;;11.28;;
71290;SDS011;59073;51.994;4.448;2023-06-22T00:08:35;10.03;;;9.99;;
71290;SDS011;59073;51.994;4.448;2023-06-22T00:11:00;6.85;;;6.80;;
71290;SDS011;59073;51.994;4.448;2023-06-22T00:13:26;11.16;;;11.08;;
71290;SDS011;59073;51.994;4.448;2023-06-22T00:15:51;10.37;;;10.36;;
71290;SDS011;59073;51.994;4.448;2023-06-22T00:18:17;11.41;;;11.32;;
71290;SDS011;59073;51.994;4.448;2023-06-22T00:20:42;11.94;;;11.89;;
71290;SDS011;59073;51.994;4.448;2023-06-22T00:23:10;10.72;;;10.65;;
71290;SDS011;59073;51.994;4.448;2023-06-22T00:25:36;8.55;;;8.52;;
71290;SDS011;59073;51.994;4.448;2023-06-22T00:28:03;8.32;;;8.31;;
71290;SDS011;59073;51.994;4.448;2023-06-22T00:30:30;9.04;;;9.04;;
71290;SDS011;59073;51.994;4.448;2023-06-22T00:32:56;10.25;;;10.18;;
71290;SDS011;59073;51.994;4.448;2023-06-22T00:35:23;11.90;;;11.79;;
71290;SDS011;59073;51.994;4.448;2023-06-22T00:37:54;12.31;;;12.21;;
71290;SDS011;59073;51.994;4.448;2023-06-22T00:40:29;13.44;;;13.38;;
71290;SDS011;59073;51.994;4.448;2023-06-22T00:42:56;13.53;;;13.35;;
71290;SDS011;59073;51.994;4.448;2023-06-22T00:45:22;13.27;;;13.18;;
71290;SDS011;59073;51.994;4.448;2023-06-22T00:47:55;13.52;;;13.46;;
71290;SDS011;59073;51.994;4.448;2023-06-22T00:50:23;13.56;;;13.54;;
71290;SDS011;59073;51.994;4.448;2023-06-22T00:52:52;13.61;;;13.59;;
71290;SDS011;59073;51.994;4.448;2023-06-22T00:55:21;13.61;;;13.56;;
71290;SDS011;59073;51.994;4.448;2023-06-22T00:57:47;13.88;;;13.71;;
71290;SDS011;59073;51.994;4.448;2023-06-22T01:00:13;13.61;;;13.54;;
71290;SDS011;59073;51.994;4.448;2023-06-22T01:02:44;12.45;;;12.42;;
71290;SDS011;59073;51.994;4.448;2023-06-22T01:05:12;12.50;;;12.46;;
71290;SDS011;59073;51.994;4.448;2023-06-22T01:10:32;12.29;;;12.28;;
71290;SDS011;59073;51.994;4.448;2023-06-22T01:16:40;7.67;;;7.66;;
71290;SDS011;59073;51.994;4.448;2023-06-22T01:22:00;10.12;;;10.09;;
71290;SDS011;59073;51.994;4.448;2023-06-22T01:24:32;9.23;;;9.23;;
71290;SDS011;59073;51.994;4.448;2023-06-22T01:27:47;10.15;;;10.15;;
71290;SDS011;59073;51.994;4.448;2023-06-22T01:30:21;11.62;;;11.57;;
71290;SDS011;59073;51.994;4.448;2023-06-22T01:32:51;12.41;;;12.41;;
71290;SDS011;59073;51.994;4.448;2023-06-22T01:35:19;11.88;;;11.86;;
71290;SDS011;59073;51.994;4.448;2023-06-22T01:37:46;11.96;;;11.94;;
71290;SDS011;59073;51.994;4.448;2023-06-22T01:40:12;11.76;;;11.76;;
71290;SDS011;59073;51.994;4.448;2023-06-22T01:42:39;11.44;;;11.41;;
71290;SDS011;59073;51.994;4.448;2023-06-22T01:45:08;11.56;;;11.47;;
71290;SDS011;59073;51.994;4.448;2023-06-22T01:47:36;11.80;;;11.63;;
71290;SDS011;59073;51.994;4.448;2023-06-22T01:50:02;11.54;;;11.44;;
71290;SDS011;59073;51.994;4.448;2023-06-22T01:52:27;11.36;;;11.29;;
71290;SDS011;59073;51.994;4.448;2023-06-22T01:54:53;11.10;;;11.10;;
71290;SDS011;59073;51.994;4.448;2023-06-22T01:57:18;11.50;;;11.47;;
71290;SDS011;59073;51.994;4.448;2023-06-22T01:59:48;11.58;;;11.54;;
71290;SDS011;59073;51.994;4.448;2023-06-22T02:02:21;11.66;;;11.51;;
71290;SDS011;59073;51.994;4.448;2023-06-22T02:04:55;11.97;;;11.92;;
71290;SDS011;59073;51.994;4.448;2023-06-22T02:07:28;8.71;;;8.69;;
71290;SDS011;59073;51.994;4.448;2023-06-22T02:09:57;6.69;;;6.63;;
71290;SDS011;59073;51.994;4.448;2023-06-22T02:12:26;9.44;;;9.44;;
71290;SDS011;59073;51.994;4.448;2023-06-22T02:14:55;9.90;;;9.90;;
71290;SDS011;59073;51.994;4.448;2023-06-22T02:17:22;9.94;;;9.92;;
71290;SDS011;59073;51.994;4.448;2023-06-22T02:19:49;7.84;;;7.83;;
71290;SDS011;59073;51.994;4.448;2023-06-22T02:22:14;7.69;;;7.69;;
71290;SDS011;59073;51.994;4.448;2023-06-22T02:24:40;5.92;;;5.92;;
71290;SDS011;59073;51.994;4.448;2023-06-22T02:27:05;4.29;;;4.29;;
71290;SDS011;59073;51.994;4.448;2023-06-22T02:29:32;4.65;;;4.65;;
71290;SDS011;59073;51.994;4.448;2023-06-22T02:31:57;4.98;;;4.98;;
71290;SDS011;59073;51.994;4.448;2023-06-22T02:34:23;5.70;;;5.70;;
71290;SDS011;59073;51.994;4.448;2023-06-22T02:36:49;7.87;;;7.87;;
71290;SDS011;59073;51.994;4.448;2023-06-22T02:39:21;9.50;;;9.49;;
71290;SDS011;59073;51.994;4.448;2023-06-22T02:41:52;11.27;;;11.19;;
71290;SDS011;59073;51.994;4.448;2023-06-22T02:44:18;11.96;;;11.93;;
71290;SDS011;59073;51.994;4.448;2023-06-22T02:46:45;12.30;;;12.30;;
71290;SDS011;59073;51.994;4.448;2023-06-22T02:49:10;11.00;;;11.00;;
71290;SDS011;59073;51.994;4.448;2023-06-22T02:51:38;9.83;;;9.82;;
71290;SDS011;59073;51.994;4.448;2023-06-22T02:54:06;11.44;;;11.43;;
71290;SDS011;59073;51.994;4.448;2023-06-22T02:56:32;11.50;;;11.46;;
71290;SDS011;59073;51.994;4.448;2023-06-22T02:58:57;11.27;;;11.14;;
71290;SDS011;59073;51.994;4.448;2023-06-22T03:01:26;8.91;;;8.91;;
71290;SDS011;59073;51.994;4.448;2023-06-22T03:03:53;11.73;;;11.58;;
71290;SDS011;59073;51.994;4.448;2023-06-22T03:06:19;12.82;;;12.69;;
71290;SDS011;59073;51.994;4.448;2023-06-22T03:08:51;13.48;;;13.47;;
71290;SDS011;59073;51.994;4.448;2023-06-22T03:11:16;14.35;;;14.32;;
71290;SDS011;59073;51.994;4.448;2023-06-22T03:13:42;14.71;;;14.68;;
71290;SDS011;59073;51.994;4.448;2023-06-22T03:16:08;13.85;;;13.79;;
71290;SDS011;59073;51.994;4.448;2023-06-22T03:18:34;13.82;;;13.77;;
71290;SDS011;59073;51.994;4.448;2023-06-22T03:20:59;14.83;;;14.78;;
71290;SDS011;59073;51.994;4.448;2023-06-22T03:23:27;14.31;;;14.31;;
71290;SDS011;59073;51.994;4.448;2023-06-22T03:25:52;14.53;;;14.53;;
71290;SDS011;59073;51.994;4.448;2023-06-22T03:28:20;15.39;;;15.32;;
71290;SDS011;59073;51.994;4.448;2023-06-22T03:30:46;14.28;;;14.21;;
71290;SDS011;59073;51.994;4.448;2023-06-22T03:33:12;14.00;;;13.88;;
71290;SDS011;59073;51.994;4.448;2023-06-22T03:35:37;14.16;;;14.10;;
71290;SDS011;59073;51.994;4.448;2023-06-22T03:38:03;13.82;;;13.73;;
71290;SDS011;59073;51.994;4.448;2023-06-22T03:40:29;14.29;;;14.21;;
71290;SDS011;59073;51.994;4.448;2023-06-22T03:42:55;14.04;;;14.04;;
71290;SDS011;59073;51.994;4.448;2023-06-22T03:45:20;14.09;;;14.07;;
71290;SDS011;59073;51.994;4.448;2023-06-22T03:47:46;14.14;;;14.08;;
71290;SDS011;59073;51.994;4.448;2023-06-22T03:50:11;14.53;;;14.42;;
71290;SDS011;59073;51.994;4.448;2023-06-22T03:52:37;13.75;;;13.68;;
71290;SDS011;59073;51.994;4.448;2023-06-22T03:55:02;13.25;;;13.25;;
71290;SDS011;59073;51.994;4.448;2023-06-22T03:57:28;13.71;;;13.68;;
71290;SDS011;59073;51.994;4.448;2023-06-22T03:59:55;15.43;;;15.38;;
71290;SDS011;59073;51.994;4.448;2023-06-22T04:02:22;14.78;;;14.72;;
71290;SDS011;59073;51.994;4.448;2023-06-22T04:04:47;14.91;;;14.86;;
71290;SDS011;59073;51.994;4.448;2023-06-22T04:07:12;14.35;;;14.31;;
71290;SDS011;59073;51.994;4.448;2023-06-22T04:09:38;15.88;;;15.80;;
71290;SDS011;59073;51.994;4.448;2023-06-22T04:12:04;15.25;;;15.10;;
71290;SDS011;59073;51.994;4.448;2023-06-22T04:14:29;14.71;;;14.62;;
71290;SDS011;59073;51.994;4.448;2023-06-22T04:16:55;14.99;;;14.96;;
71290;SDS011;59073;51.994;4.448;2023-06-22T04:19:20;15.86;;;15.80;;
71290;SDS011;59073;51.994;4.448;2023-06-22T04:21:46;15.40;;;15.32;;
71290;SDS011;59073;51.994;4.448;2023-06-22T04:24:13;16.02;;;15.97;;
71290;SDS011;59073;51.994;4.448;2023-06-22T04:26:39;15.96;;;15.91;;
71290;SDS011;59073;51.994;4.448;2023-06-22T04:29:07;16.22;;;16.19;;
71290;SDS011;59073;51.994;4.448;2023-06-22T04:31:34;15.93;;;15.92;;
71290;SDS011;59073;51.994;4.448;2023-06-22T04:34:06;16.15;;;16.11;;
71290;SDS011;59073;51.994;4.448;2023-06-22T04:36:37;15.31;;;15.30;;
71290;SDS011;59073;51.994;4.448;2023-06-22T04:39:05;15.79;;;15.67;;
71290;SDS011;59073;51.994;4.448;2023-06-22T04:41:31;14.58;;;14.42;;
71290;SDS011;59073;51.994;4.448;2023-06-22T04:44:16;14.77;;;14.74;;
71290;SDS011;59073;51.994;4.448;2023-06-22T04:46:49;13.68;;;13.68;;
71290;SDS011;59073;51.994;4.448;2023-06-22T04:49:33;14.27;;;14.24;;
71290;SDS011;59073;51.994;4.448;2023-06-22T04:52:05;13.66;;;13.64;;
71290;SDS011;59073;51.994;4.448;2023-06-22T04:54:32;13.65;;;13.64;;
71290;SDS011;59073;51.994;4.448;2023-06-22T04:57:00;13.60;;;13.59;;
71290;SDS011;59073;51.994;4.448;2023-06-22T04:59:26;13.66;;;13.66;;
71290;SDS011;59073;51.994;4.448;2023-06-22T05:01:58;13.72;;;13.71;;
71290;SDS011;59073;51.994;4.448;2023-06-22T05:04:25;13.67;;;13.66;;
71290;SDS011;59073;51.994;4.448;2023-06-22T05:06:53;13.88;;;13.87;;
71290;SDS011;59073;51.994;4.448;2023-06-22T05:09:21;13.91;;;13.83;;
71290;SDS011;59073;51.994;4.448;2023-06-22T05:11:47;13.97;;;13.94;;
71290;SDS011;59073;51.994;4.448;2023-06-22T05:14:12;12.88;;;12.85;;
71290;SDS011;59073;51.994;4.448;2023-06-22T05:16:38;13.04;;;13.04;;
71290;SDS011;59073;51.994;4.448;2023-06-22T05:19:06;13.32;;;13.32;;
71290;SDS011;59073;51.994;4.448;2023-06-22T05:21:31;12.85;;;12.74;;
71290;SDS011;59073;51.994;4.448;2023-06-22T05:23:57;12.81;;;12.81;;
71290;SDS011;59073;51.994;4.448;2023-06-22T05:26:27;12.28;;;12.28;;
71290;SDS011;59073;51.994;4.448;2023-06-22T05:28:54;12.02;;;12.02;;
71290;SDS011;59073;51.994;4.448;2023-06-22T05:31:20;12.21;;;12.21;;
71290;SDS011;59073;51.994;4.448;2023-06-22T05:33:46;12.28;;;12.28;;
71290;SDS011;59073;51.994;4.448;2023-06-22T05:36:13;11.59;;;11.59;;
71290;SDS011;59073;51.994;4.448;2023-06-22T05:38:39;11.66;;;11.64;;
71290;SDS011;59073;51.994;4.448;2023-06-22T05:41:05;12.23;;;12.13;;
71290;SDS011;59073;51.994;4.448;2023-06-22T05:43:31;11.77;;;11.67;;
71290;SDS011;59073;51.994;4.448;2023-06-22T05:45:57;11.04;;;11.00;;
71290;SDS011;59073;51.994;4.448;2023-06-22T05:48:24;10.99;;;10.99;;
71290;SDS011;59073;51.994;4.448;2023-06-22T05:50:49;11.34;;;11.33;;
71290;SDS011;59073;51.994;4.448;2023-06-22T05:53:15;9.99;;;9.99;;
71290;SDS011;59073;51.994;4.448;2023-06-22T05:55:40;10.09;;;10.09;;
71290;SDS011;59073;51.994;4.448;2023-06-22T05:58:06;9.94;;;9.93;;
71290;SDS011;59073;51.994;4.448;2023-06-22T06:00:31;9.60;;;9.58;;
71290;SDS011;59073;51.994;4.448;2023-06-22T06:02:57;9.82;;;9.82;;
71290;SDS011;59073;51.994;4.448;2023-06-22T06:05:28;10.51;;;10.51;;
71290;SDS011;59073;51.994;4.448;2023-06-22T06:07:54;10.42;;;10.42;;
71290;SDS011;59073;51.994;4.448;2023-06-22T06:10:19;11.04;;;11.02;;
71290;SDS011;59073;51.994;4.448;2023-06-22T06:12:44;11.02;;;10.88;;
71290;SDS011;59073;51.994;4.448;2023-06-22T06:15:10;10.27;;;10.22;;
71290;SDS011;59073;51.994;4.448;2023-06-22T06:17:35;10.04;;;10.04;;
71290;SDS011;59073;51.994;4.448;2023-06-22T06:20:01;9.90;;;9.90;;
71290;SDS011;59073;51.994;4.448;2023-06-22T06:22:28;10.19;;;10.19;;
71290;SDS011;59073;51.994;4.448;2023-06-22T06:24:53;10.69;;;10.68;;
71290;SDS011;59073;51.994;4.448;2023-06-22T06:27:19;10.31;;;10.31;;
71290;SDS011;59073;51.994;4.448;2023-06-22T06:29:44;10.51;;;10.50;;
71290;SDS011;59073;51.994;4.448;2023-06-22T06:32:13;10.82;;;10.82;;
71290;SDS011;59073;51.994;4.448;2023-06-22T06:34:39;10.61;;;10.61;;
71290;SDS011;59073;51.994;4.448;2023-06-22T06:37:05;11.09;;;11.09;;
71290;SDS011;59073;51.994;4.448;2023-06-22T06:39:31;10.44;;;10.44;;
71290;SDS011;59073;51.994;4.448;2023-06-22T06:41:56;11.23;;;11.23;;
71290;SDS011;59073;51.994;4.448;2023-06-22T06:44:22;10.78;;;10.77;;
71290;SDS011;59073;51.994;4.448;2023-06-22T06:46:47;11.13;;;11.12;;
71290;SDS011;59073;51.994;4.448;2023-06-22T06:49:13;10.97;;;10.97;;
71290;SDS011;59073;51.994;4.448;2023-06-22T06:51:38;11.04;;;11.04;;
71290;SDS011;59073;51.994;4.448;2023-06-22T06:54:03;10.38;;;10.38;;
71290;SDS011;59073;51.994;4.448;2023-06-22T06:56:29;10.47;;;10.47;;
71290;SDS011;59073;51.994;4.448;2023-06-22T06:58:55;9.45;;;9.45;;
71290;SDS011;59073;51.994;4.448;2023-06-22T07:01:20;9.27;;;9.27;;
71290;SDS011;59073;51.994;4.448;2023-06-22T07:03:46;9.38;;;9.38;;
71290;SDS011;59073;51.994;4.448;2023-06-22T07:06:11;9.68;;;9.68;;
71290;SDS011;59073;51.994;4.448;2023-06-22T07:08:36;9.14;;;9.14;;
71290;SDS011;59073;51.994;4.448;2023-06-22T07:11:02;8.25;;;8.25;;
71290;SDS011;59073;51.994;4.448;2023-06-22T07:13:27;8.08;;;8.08;;
71290;SDS011;59073;51.994;4.448;2023-06-22T07:15:53;8.34;;;8.34;;
71290;SDS011;59073;51.994;4.448;2023-06-22T07:18:18;7.35;;;7.35;;
71290;SDS011;59073;51.994;4.448;2023-06-22T07:20:44;8.01;;;8.01;;
71290;SDS011;59073;51.994;4.448;2023-06-22T07:23:09;7.59;;;7.59;;
71290;SDS011;59073;51.994;4.448;2023-06-22T07:25:35;6.91;;;6.91;;
71290;SDS011;59073;51.994;4.448;2023-06-22T07:30:29;6.40;;;6.40;;
71290;SDS011;59073;51.994;4.448;2023-06-22T07:32:56;5.65;;;5.64;;
71290;SDS011;59073;51.994;4.448;2023-06-22T07:35:23;6.10;;;6.09;;
71290;SDS011;59073;51.994;4.448;2023-06-22T07:37:49;5.74;;;5.74;;
71290;SDS011;59073;51.994;4.448;2023-06-22T07:40:15;5.31;;;5.31;;
71290;SDS011;59073;51.994;4.448;2023-06-22T07:42:40;5.33;;;5.33;;
71290;SDS011;59073;51.994;4.448;2023-06-22T07:45:06;4.77;;;4.77;;
71290;SDS011;59073;51.994;4.448;2023-06-22T07:47:33;4.03;;;4.03;;
71290;SDS011;59073;51.994;4.448;2023-06-22T07:50:00;4.45;;;4.44;;
71290;SDS011;59073;51.994;4.448;2023-06-22T07:52:27;4.65;;;4.65;;
71290;SDS011;59073;51.994;4.448;2023-06-22T07:54:53;3.69;;;3.69;;
71290;SDS011;59073;51.994;4.448;2023-06-22T07:57:18;3.71;;;3.71;;
71290;SDS011;59073;51.994;4.448;2023-06-22T07:59:44;3.72;;;3.72;;
71290;SDS011;59073;51.994;4.448;2023-06-22T08:02:10;3.28;;;3.28;;
71290;SDS011;59073;51.994;4.448;2023-06-22T08:04:36;3.28;;;3.28;;
71290;SDS011;59073;51.994;4.448;2023-06-22T08:07:01;3.49;;;3.49;;
71290;SDS011;59073;51.994;4.448;2023-06-22T08:09:30;3.00;;;3.00;;
71290;SDS011;59073;51.994;4.448;2023-06-22T08:11:57;2.77;;;2.77;;
71290;SDS011;59073;51.994;4.448;2023-06-22T08:14:26;2.81;;;2.81;;
71290;SDS011;59073;51.994;4.448;2023-06-22T08:16:52;2.66;;;2.66;;
71290;SDS011;59073;51.994;4.448;2023-06-22T08:19:17;2.76;;;2.76;;
71290;SDS011;59073;51.994;4.448;2023-06-22T08:21:43;2.29;;;2.29;;
71290;SDS011;59073;51.994;4.448;2023-06-22T08:24:09;2.44;;;2.44;;
71290;SDS011;59073;51.994;4.448;2023-06-22T08:26:34;2.31;;;2.31;;
71290;SDS011;59073;51.994;4.448;2023-06-22T08:29:02;1.95;;;1.95;;
71290;SDS011;59073;51.994;4.448;2023-06-22T08:31:28;2.24;;;2.24;;
71290;SDS011;59073;51.994;4.448;2023-06-22T08:33:53;2.34;;;2.34;;
71290;SDS011;59073;51.994;4.448;2023-06-22T08:36:19;2.33;;;2.33;;
71290;SDS011;59073;51.994;4.448;2023-06-22T08:38:44;2.75;;;2.75;;
71290;SDS011;59073;51.994;4.448;2023-06-22T08:41:10;2.18;;;2.18;;
71290;SDS011;59073;51.994;4.448;2023-06-22T08:43:35;2.02;;;2.02;;
71290;SDS011;59073;51.994;4.448;2023-06-22T08:46:01;2.04;;;2.04;;
71290;SDS011;59073;51.994;4.448;2023-06-22T08:48:27;2.11;;;2.11;;
71290;SDS011;59073;51.994;4.448;2023-06-22T08:50:53;2.12;;;2.12;;
71290;SDS011;59073;51.994;4.448;2023-06-22T08:53:19;2.08;;;2.08;;
71290;SDS011;59073;51.994;4.448;2023-06-22T08:55:44;2.26;;;2.26;;
71290;SDS011;59073;51.994;4.448;2023-06-22T08:58:10;2.69;;;2.69;;
71290;SDS011;59073;51.994;4.448;2023-06-22T09:00:35;3.22;;;3.22;;
71290;SDS011;59073;51.994;4.448;2023-06-22T09:03:01;3.66;;;3.66;;
71290;SDS011;59073;51.994;4.448;2023-06-22T09:05:26;4.21;;;4.21;;
71290;SDS011;59073;51.994;4.448;2023-06-22T09:07:52;3.14;;;3.14;;
71290;SDS011;59073;51.994;4.448;2023-06-22T09:10:20;3.01;;;3.01;;
71290;SDS011;59073;51.994;4.448;2023-06-22T09:12:45;4.01;;;4.01;;
71290;SDS011;59073;51.994;4.448;2023-06-22T09:15:11;4.30;;;4.30;;
71290;SDS011;59073;51.994;4.448;2023-06-22T09:17:36;5.61;;;5.61;;
71290;SDS011;59073;51.994;4.448;2023-06-22T09:20:02;5.91;;;5.91;;
71290;SDS011;59073;51.994;4.448;2023-06-22T09:22:30;5.53;;;5.53;;
71290;SDS011;59073;51.994;4.448;2023-06-22T09:24:57;4.89;;;4.89;;
71290;SDS011;59073;51.994;4.448;2023-06-22T09:27:24;4.57;;;4.57;;
71290;SDS011;59073;51.994;4.448;2023-06-22T09:29:50;5.96;;;5.96;;
71290;SDS011;59073;51.994;4.448;2023-06-22T09:32:15;5.80;;;5.80;;
71290;SDS011;59073;51.994;4.448;2023-06-22T09:34:41;4.69;;;4.69;;
71290;SDS011;59073;51.994;4.448;2023-06-22T09:37:06;3.97;;;3.97;;
71290;SDS011;59073;51.994;4.448;2023-06-22T09:39:32;4.33;;;4.33;;
71290;SDS011;59073;51.994;4.448;2023-06-22T09:41:58;5.53;;;5.53;;
71290;SDS011;59073;51.994;4.448;2023-06-22T09:44:25;5.76;;;5.76;;
71290;SDS011;59073;51.994;4.448;2023-06-22T09:46:50;4.70;;;4.70;;
71290;SDS011;59073;51.994;4.448;2023-06-22T09:49:15;5.13;;;5.13;;
71290;SDS011;59073;51.994;4.448;2023-06-22T09:51:41;5.87;;;5.87;;
71290;SDS011;59073;51.994;4.448;2023-06-22T09:54:06;5.33;;;5.33;;
71290;SDS011;59073;51.994;4.448;2023-06-22T09:56:32;4.97;;;4.97;;
71290;SDS011;59073;51.994;4.448;2023-06-22T09:58:57;5.57;;;5.57;;
71290;SDS011;59073;51.994;4.448;2023-06-22T10:01:23;6.12;;;6.12;;
71290;SDS011;59073;51.994;4.448;2023-06-22T10:03:48;5.20;;;5.20;;
71290;SDS011;59073;51.994;4.448;2023-06-22T10:06:14;3.79;;;3.79;;
71290;SDS011;59073;51.994;4.448;2023-06-22T10:08:40;3.48;;;3.48;;
71290;SDS011;59073;51.994;4.448;2023-06-22T10:11:06;4.43;;;4.43;;
71290;SDS011;59073;51.994;4.448;2023-06-22T10:13:31;4.79;;;4.79;;
71290;SDS011;59073;51.994;4.448;2023-06-22T10:15:56;4.99;;;4.99;;
71290;SDS011;59073;51.994;4.448;2023-06-22T10:18:22;5.93;;;5.93;;
71290;SDS011;59073;51.994;4.448;2023-06-22T10:20:48;5.68;;;5.68;;
71290;SDS011;59073;51.994;4.448;2023-06-22T10:23:16;5.41;;;5.41;;
71290;SDS011;59073;51.994;4.448;2023-06-22T10:25:42;5.52;;;5.52;;
71290;SDS011;59073;51.994;4.448;2023-06-22T10:28:08;4.65;;;4.65;;
71290;SDS011;59073;51.994;4.448;2023-06-22T10:30:33;4.91;;;4.91;;
71290;SDS011;59073;51.994;4.448;2023-06-22T10:32:59;5.35;;;5.35;;
71290;SDS011;59073;51.994;4.448;2023-06-22T10:35:24;5.73;;;5.73;;
71290;SDS011;59073;51.994;4.448;2023-06-22T10:37:50;5.92;;;5.92;;
71290;SDS011;59073;51.994;4.448;2023-06-22T10:40:16;5.97;;;5.97;;
71290;SDS011;59073;51.994;4.448;2023-06-22T10:42:43;5.49;;;5.49;;
71290;SDS011;59073;51.994;4.448;2023-06-22T10:45:10;5.09;;;5.09;;
71290;SDS011;59073;51.994;4.448;2023-06-22T10:47:36;5.14;;;5.14;;
71290;SDS011;59073;51.994;4.448;2023-06-22T10:50:02;4.90;;;4.90;;
71290;SDS011;59073;51.994;4.448;2023-06-22T10:52:28;4.12;;;4.12;;
71290;SDS011;59073;51.994;4.448;2023-06-22T10:54:54;4.71;;;4.71;;
71290;SDS011;59073;51.994;4.448;2023-06-22T10:57:21;4.87;;;4.87;;
71290;SDS011;59073;51.994;4.448;2023-06-22T10:59:47;4.62;;;4.62;;
71290;SDS011;59073;51.994;4.448;2023-06-22T11:02:13;4.77;;;4.77;;
71290;SDS011;59073;51.994;4.448;2023-06-22T11:04:38;5.08;;;5.08;;
71290;SDS011;59073;51.994;4.448;2023-06-22T11:07:04;4.84;;;4.84;;
71290;SDS011;59073;51.994;4.448;2023-06-22T11:09:30;4.79;;;4.79;;
71290;SDS011;59073;51.994;4.448;2023-06-22T11:11:56;4.34;;;4.34;;
71290;SDS011;59073;51.994;4.448;2023-06-22T11:14:23;4.28;;;4.28;;
71290;SDS011;59073;51.994;4.448;2023-06-22T11:16:49;4.47;;;4.47;;
71290;SDS011;59073;51.994;4.448;2023-06-22T11:19:14;4.59;;;4.59;;
71290;SDS011;59073;51.994;4.448;2023-06-22T11:21:40;5.48;;;5.48;;
71290;SDS011;59073;51.994;4.448;2023-06-22T11:24:05;5.77;;;5.77;;
71290;SDS011;59073;51.994;4.448;2023-06-22T11:26:31;6.15;;;6.15;;
71290;SDS011;59073;51.994;4.448;2023-06-22T11:28:57;5.43;;;5.43;;
71290;SDS011;59073;51.994;4.448;2023-06-22T11:31:23;4.77;;;4.77;;
71290;SDS011;59073;51.994;4.448;2023-06-22T11:33:49;5.54;;;5.54;;
71290;SDS011;59073;51.994;4.448;2023-06-22T11:36:15;5.67;;;5.67;;
71290;SDS011;59073;51.994;4.448;2023-06-22T11:38:41;5.22;;;5.22;;
71290;SDS011;59073;51.994;4.448;2023-06-22T11:41:07;5.49;;;5.49;;
71290;SDS011;59073;51.994;4.448;2023-06-22T11:43:34;5.74;;;5.74;;
71290;SDS011;59073;51.994;4.448;2023-06-22T11:46:00;6.16;;;6.16;;
71290;SDS011;59073;51.994;4.448;2023-06-22T11:48:27;6.04;;;6.04;;
71290;SDS011;59073;51.994;4.448;2023-06-22T11:50:52;6.62;;;6.62;;
71290;SDS011;59073;51.994;4.448;2023-06-22T11:53:19;5.76;;;5.76;;
71290;SDS011;59073;51.994;4.448;2023-06-22T11:55:45;5.57;;;5.57;;
71290;SDS011;59073;51.994;4.448;2023-06-22T11:58:10;5.58;;;5.58;;
71290;SDS011;59073;51.994;4.448;2023-06-22T12:00:36;6.27;;;6.27;;
71290;SDS011;59073;51.994;4.448;2023-06-22T12:03:02;7.85;;;7.85;;
71290;SDS011;59073;51.994;4.448;2023-06-22T12:05:28;8.23;;;8.23;;
71290;SDS011;59073;51.994;4.448;2023-06-22T12:07:54;8.94;;;8.94;;
71290;SDS011;59073;51.994;4.448;2023-06-22T12:10:21;9.26;;;9.26;;
71290;SDS011;59073;51.994;4.448;2023-06-22T12:12:47;10.02;;;10.02;;
71290;SDS011;59073;51.994;4.448;2023-06-22T12:15:13;10.57;;;10.57;;
71290;SDS011;59073;51.994;4.448;2023-06-22T12:17:38;11.01;;;11.01;;
71290;SDS011;59073;51.994;4.448;2023-06-22T12:20:05;11.32;;;11.32;;
71290;SDS011;59073;51.994;4.448;2023-06-22T12:22:32;10.91;;;10.91;;
71290;SDS011;59073;51.994;4.448;2023-06-22T12:24:57;10.59;;;10.59;;
71290;SDS011;59073;51.994;4.448;2023-06-22T12:27:23;10.36;;;10.36;;
71290;SDS011;59073;51.994;4.448;2023-06-22T12:29:48;10.73;;;10.73;;
71290;SDS011;59073;51.994;4.448;2023-06-22T12:32:14;10.76;;;10.76;;
71290;SDS011;59073;51.994;4.448;2023-06-22T12:34:43;10.62;;;10.62;;
71290;SDS011;59073;51.994;4.448;2023-06-22T12:37:09;11.26;;;11.26;;
71290;SDS011;59073;51.994;4.448;2023-06-22T12:39:35;10.74;;;10.74;;
71290;SDS011;59073;51.994;4.448;2023-06-22T12:42:00;10.94;;;10.94;;
71290;SDS011;59073;51.994;4.448;2023-06-22T12:44:26;9.79;;;9.79;;
71290;SDS011;59073;51.994;4.448;2023-06-22T12:46:52;9.13;;;9.13;;
71290;SDS011;59073;51.994;4.448;2023-06-22T12:49:17;9.71;;;9.71;;
71290;SDS011;59073;51.994;4.448;2023-06-22T12:51:44;9.97;;;9.97;;
71290;SDS011;59073;51.994;4.448;2023-06-22T12:54:10;9.50;;;9.50;;
71290;SDS011;59073;51.994;4.448;2023-06-22T12:56:37;9.71;;;9.71;;
71290;SDS011;59073;51.994;4.448;2023-06-22T12:59:05;9.50;;;9.50;;
71290;SDS011;59073;51.994;4.448;2023-06-22T13:01:31;9.56;;;9.56;;
71290;SDS011;59073;51.994;4.448;2023-06-22T13:03:57;9.88;;;9.88;;
71290;SDS011;59073;51.994;4.448;2023-06-22T13:06:23;10.13;;;10.13;;
71290;SDS011;59073;51.994;4.448;2023-06-22T13:08:49;11.76;;;11.76;;
71290;SDS011;59073;51.994;4.448;2023-06-22T13:11:14;12.11;;;12.11;;
71290;SDS011;59073;51.994;4.448;2023-06-22T13:13:40;12.27;;;12.27;;
71290;SDS011;59073;51.994;4.448;2023-06-22T13:16:05;12.42;;;12.42;;
71290;SDS011;59073;51.994;4.448;2023-06-22T13:18:31;12.49;;;12.49;;
71290;SDS011;59073;51.994;4.448;2023-06-22T13:20:58;12.51;;;12.51;;
71290;SDS011;59073;51.994;4.448;2023-06-22T13:23:25;12.61;;;12.61;;
71290;SDS011;59073;51.994;4.448;2023-06-22T13:25:50;11.92;;;11.92;;
71290;SDS011;59073;51.994;4.448;2023-06-22T13:28:16;11.66;;;11.66;;
71290;SDS011;59073;51.994;4.448;2023-06-22T13:30:42;11.95;;;11.95;;
71290;SDS011;59073;51.994;4.448;2023-06-22T13:33:10;11.37;;;11.37;;
71290;SDS011;59073;51.994;4.448;2023-06-22T13:35:36;11.86;;;11.86;;
71290;SDS011;59073;51.994;4.448;2023-06-22T13:38:02;11.36;;;11.36;;
71290;SDS011;59073;51.994;4.448;2023-06-22T13:40:27;11.72;;;11.72;;
71290;SDS011;59073;51.994;4.448;2023-06-22T13:42:52;11.77;;;11.77;;
71290;SDS011;59073;51.994;4.448;2023-06-22T13:45:18;11.35;;;11.35;;
71290;SDS011;59073;51.994;4.448;2023-06-22T13:47:45;11.39;;;11.39;;
71290;SDS011;59073;51.994;4.448;2023-06-22T13:50:10;11.09;;;11.09;;
71290;SDS011;59073;51.994;4.448;2023-06-22T13:52:37;9.91;;;9.91;;
71290;SDS011;59073;51.994;4.448;2023-06-22T13:55:03;9.84;;;9.84;;
71290;SDS011;59073;51.994;4.448;2023-06-22T13:57:29;9.90;;;9.90;;
71290;SDS011;59073;51.994;4.448;2023-06-22T13:59:55;10.61;;;10.61;;
71290;SDS011;59073;51.994;4.448;2023-06-22T14:02:20;10.95;;;10.95;;
71290;SDS011;59073;51.994;4.448;2023-06-22T14:04:46;10.37;;;10.37;;
71290;SDS011;59073;51.994;4.448;2023-06-22T14:07:11;10.83;;;10.83;;
71290;SDS011;59073;51.994;4.448;2023-06-22T14:09:37;10.82;;;10.82;;
71290;SDS011;59073;51.994;4.448;2023-06-22T14:12:03;10.47;;;10.47;;
71290;SDS011;59073;51.994;4.448;2023-06-22T14:14:30;11.22;;;11.22;;
71290;SDS011;59073;51.994;4.448;2023-06-22T14:16:56;11.95;;;11.95;;
71290;SDS011;59073;51.994;4.448;2023-06-22T14:19:21;11.62;;;11.62;;
71290;SDS011;59073;51.994;4.448;2023-06-22T14:21:46;11.43;;;11.43;;
71290;SDS011;59073;51.994;4.448;2023-06-22T14:24:12;11.78;;;11.78;;
71290;SDS011;59073;51.994;4.448;2023-06-22T14:26:37;11.41;;;11.41;;
71290;SDS011;59073;51.994;4.448;2023-06-22T14:29:03;11.60;;;11.60;;
71290;SDS011;59073;51.994;4.448;2023-06-22T14:31:29;11.70;;;11.70;;
71290;SDS011;59073;51.994;4.448;2023-06-22T14:33:54;12.13;;;12.13;;
71290;SDS011;59073;51.994;4.448;2023-06-22T14:36:19;11.56;;;11.56;;
71290;SDS011;59073;51.994;4.448;2023-06-22T14:38:45;11.64;;;11.64;;
71290;SDS011;59073;51.994;4.448;2023-06-22T14:41:11;12.07;;;12.07;;